createdAt,value
2022-11-13T00:01:37.009Z,29.90
2022-11-13T00:04:30.120Z,29.15
2022-11-13T00:07:20.661Z,27.45
2022-11-13T00:10:10.288Z,29.95
2022-11-13T00:12:59.677Z,30.77
2022-11-13T00:15:46.616Z,29.02
2022-11-13T00:18:37.135Z,31.02
2022-11-13T00:21:27.389Z,29.05
2022-11-13T00:24:14.610Z,30.33
2022-11-13T00:27:08.891Z,28.73
2022-11-13T00:29:56.223Z,29.90
2022-11-13T00:32:46.541Z,30.77
2022-11-13T00:35:33.741Z,30.88
2022-11-13T00:38:21.097Z,30.13
2022-11-13T00:41:08.261Z,29.52
2022-11-13T00:44:22.154Z,32.35
2022-11-13T00:47:12.677Z,30.15
2022-11-13T00:49:59.640Z,31.10
2022-11-13T00:52:49.330Z,30.67
2022-11-13T00:55:45.350Z,30.75
2022-11-13T00:58:32.817Z,30.27
2022-11-13T01:01:29.921Z,28.25
2022-11-13T01:04:18.504Z,28.23
2022-11-13T01:07:05.343Z,27.25
2022-11-13T01:09:53.017Z,29.33
2022-11-13T01:12:40.092Z,29.95
2022-11-13T01:15:29.111Z,29.42
2022-11-13T01:18:18.098Z,28.58
2022-11-13T01:21:15.297Z,30.30
2022-11-13T01:24:02.959Z,27.95
2022-11-13T01:26:50.549Z,29.63
2022-11-13T01:29:39.479Z,29.77
2022-11-13T01:33:01.559Z,30.30
2022-11-13T01:35:50.220Z,29.20
2022-11-13T01:38:37.966Z,29.48
2022-11-13T01:41:26.448Z,32.30
2022-11-13T01:44:16.395Z,30.63
2022-11-13T01:47:18.773Z,31.65
2022-11-13T01:50:06.010Z,31.05
2022-11-13T01:52:54.270Z,30.20
2022-11-13T01:55:42.049Z,30.25
2022-11-13T01:58:29.864Z,31.38
2022-11-13T02:01:58.548Z,30.83
2022-11-13T02:04:46.604Z,29.58
2022-11-13T02:08:07.141Z,32.45
2022-11-13T02:10:55.503Z,34.28
2022-11-13T02:13:43.027Z,32.47
2022-11-13T02:16:59.619Z,30.33
2022-11-13T02:19:55.289Z,31.77
2022-11-13T02:22:49.521Z,31.67
2022-11-13T02:25:57.128Z,30.88
2022-11-13T02:32:37.105Z,34.05
2022-11-13T02:35:28.826Z,32.03
2022-11-13T02:38:22.898Z,30.98
2022-11-13T02:41:20.140Z,31.08
2022-11-13T02:44:08.212Z,30.10
2022-11-13T02:47:02.842Z,32.53
2022-11-13T02:49:50.638Z,29.83
2022-11-13T02:56:41.100Z,30.45
2022-11-13T02:59:28.858Z,31.02
2022-11-13T03:02:15.961Z,32.13
2022-11-13T03:08:51.994Z,31.90
2022-11-13T03:25:39.804Z,29.05
2022-11-13T03:40:37.052Z,31.50
2022-11-13T04:38:00.976Z,31.30
2022-11-13T04:54:29.329Z,31.65
2022-11-13T04:58:36.239Z,31.05
2022-11-13T05:10:10.902Z,30.77
2022-11-13T05:13:48.387Z,33.08
2022-11-13T05:17:27.415Z,32.80
2022-11-13T05:20:32.187Z,35.33
2022-11-13T05:24:01.194Z,32.40
2022-11-13T05:35:14.237Z,32.13
2022-11-13T05:39:51.789Z,34.72
2022-11-13T05:45:28.120Z,31.85
2022-11-13T05:48:17.517Z,33.05
2022-11-13T05:51:08.015Z,32.83
2022-11-13T05:53:56.718Z,31.65
2022-11-13T05:56:43.757Z,32.10
2022-11-13T05:59:30.685Z,31.48
2022-11-13T06:02:17.570Z,32.55
2022-11-13T06:05:06.581Z,31.45
2022-11-13T06:07:54.949Z,32.53
2022-11-13T06:10:50.593Z,31.45
2022-11-13T06:13:40.406Z,30.70
2022-11-13T06:16:36.102Z,31.90
2022-11-13T06:19:23.342Z,31.65
2022-11-13T06:22:10.385Z,31.90
2022-11-13T06:28:44.508Z,29.27
2022-11-13T06:31:33.847Z,32.95
2022-11-13T06:34:20.791Z,31.02
2022-11-13T06:37:07.872Z,31.65
2022-11-13T06:39:54.742Z,33.47
2022-11-13T06:42:45.101Z,32.97
2022-11-13T06:46:16.036Z,31.73
2022-11-13T06:49:04.435Z,33.55
2022-11-13T06:51:51.831Z,33.92
2022-11-13T06:54:38.953Z,34.63
2022-11-13T06:57:36.841Z,34.97
2022-11-13T07:00:24.094Z,34.03
2022-11-13T07:03:17.840Z,35.33
2022-11-13T07:06:48.779Z,35.38
2022-11-13T07:09:52.088Z,34.75
2022-11-13T07:12:39.130Z,33.92
2022-11-13T07:15:25.748Z,36.20
2022-11-13T07:18:12.769Z,31.95
2022-11-13T07:20:59.726Z,30.80
2022-11-13T07:23:49.580Z,34.58
2022-11-13T07:30:46.883Z,29.23
2022-11-13T07:33:34.126Z,32.53
2022-11-13T07:36:26.840Z,31.90
2022-11-13T07:39:13.745Z,30.25
2022-11-13T07:42:00.844Z,32.25
2022-11-13T07:44:54.601Z,31.65
2022-11-13T07:48:05.521Z,32.42
2022-11-13T07:51:10.630Z,33.20
2022-11-13T07:53:57.901Z,32.60
2022-11-13T07:56:47.424Z,32.17
2022-11-13T07:59:35.146Z,33.78
2022-11-13T08:02:26.225Z,32.33
2022-11-13T08:05:33.653Z,34.67
2022-11-13T08:08:24.064Z,32.80
2022-11-13T08:11:11.343Z,33.55
2022-11-13T08:13:58.110Z,34.80
2022-11-13T08:16:48.535Z,34.65
2022-11-13T08:19:35.664Z,35.30
2022-11-13T08:22:27.638Z,30.80
2022-11-13T08:25:14.589Z,32.33
2022-11-13T08:28:12.812Z,33.75
2022-11-13T08:31:03.800Z,32.70
2022-11-13T08:33:51.279Z,31.45
2022-11-13T08:36:41.417Z,33.33
2022-11-13T08:39:38.045Z,34.65
2022-11-13T08:42:24.900Z,34.38
2022-11-13T08:45:12.710Z,34.83
2022-11-13T08:48:26.678Z,35.08
2022-11-13T08:51:37.658Z,37.85
2022-11-13T08:54:27.987Z,42.53
2022-11-13T08:57:18.325Z,35.88
2022-11-13T09:00:15.416Z,32.33
2022-11-13T09:03:02.721Z,28.73
2022-11-13T09:05:50.857Z,31.50
2022-11-13T09:08:41.498Z,27.58
2022-11-13T09:11:28.541Z,26.23
2022-11-13T09:14:20.101Z,27.40
2022-11-13T09:17:07.039Z,26.42
2022-11-13T09:19:54.093Z,24.35
2022-11-13T09:23:02.962Z,23.83
2022-11-13T09:26:28.683Z,24.05
2022-11-13T09:29:28.671Z,24.48
2022-11-13T09:33:41.101Z,22.38
2022-11-13T09:36:35.697Z,22.35
2022-11-13T09:43:33.873Z,20.98
2022-11-13T09:46:58.108Z,17.05
2022-11-13T09:49:52.233Z,18.88
2022-11-13T09:53:10.292Z,18.60
2022-11-13T10:07:53.472Z,16.48
2022-11-13T10:24:28.636Z,16.05
2022-11-13T10:58:04.706Z,13.15
2022-11-13T12:42:05.808Z,17.50
2022-11-13T12:49:33.238Z,18.73
2022-11-13T13:52:33.531Z,20.08
2022-11-13T13:56:50.035Z,20.10
2022-11-13T14:07:04.337Z,18.98
2022-11-13T14:10:56.523Z,18.85
2022-11-13T14:18:26.988Z,17.27
2022-11-13T14:21:25.216Z,17.67
2022-11-13T14:24:24.098Z,18.38
2022-11-13T14:28:21.876Z,21.15
2022-11-13T14:42:53.621Z,23.25
2022-11-13T14:45:55.320Z,22.30
2022-11-13T14:49:21.192Z,21.48
2022-11-13T14:52:11.460Z,20.88
2022-11-13T14:55:30.699Z,22.52
2022-11-13T14:58:35.611Z,21.83
2022-11-13T15:01:24.802Z,22.17
2022-11-13T15:04:40.909Z,25.15
2022-11-13T15:07:31.913Z,24.90
2022-11-13T15:10:23.622Z,25.83
2022-11-13T15:13:13.634Z,26.63
2022-11-13T15:16:02.777Z,25.20
2022-11-13T15:19:01.820Z,24.85
2022-11-13T15:22:20.348Z,26.33
2022-11-13T15:24:58.081Z,25.92
2022-11-13T15:27:45.189Z,28.00
2022-11-13T15:30:32.447Z,29.55
2022-11-13T15:33:30.241Z,30.25
2022-11-13T15:36:18.179Z,30.92
2022-11-13T15:39:32.489Z,30.02
2022-11-13T15:42:38.618Z,29.77
2022-11-13T15:45:38.642Z,31.77
2022-11-13T15:48:33.553Z,31.75
2022-11-13T15:55:40.865Z,31.38
2022-11-13T15:58:48.755Z,31.58
2022-11-13T16:01:39.628Z,32.10
2022-11-13T16:04:50.425Z,31.80
2022-11-13T16:07:49.895Z,31.10
2022-11-13T16:14:31.080Z,31.15
2022-11-13T16:18:03.232Z,31.58
2022-11-13T16:21:50.820Z,32.38
2022-11-13T16:25:50.060Z,31.50
2022-11-13T16:31:57.057Z,31.60
2022-11-13T16:35:29.727Z,32.10
2022-11-13T16:39:07.337Z,32.20
2022-11-13T16:42:24.128Z,34.95
2022-11-13T16:45:46.779Z,37.03
2022-11-13T16:48:59.877Z,36.10
2022-11-13T16:52:00.669Z,34.58
2022-11-13T16:55:06.586Z,36.20
2022-11-13T16:57:53.840Z,35.80
2022-11-13T17:01:00.001Z,35.97
2022-11-13T17:04:09.984Z,36.92
2022-11-13T17:06:58.069Z,37.47
2022-11-13T17:09:55.162Z,35.10
2022-11-13T17:12:54.710Z,33.78
2022-11-13T17:15:52.580Z,36.55
2022-11-13T17:18:39.779Z,35.97
2022-11-13T17:21:31.937Z,36.40
2022-11-13T17:24:19.117Z,33.75
2022-11-13T17:27:06.448Z,32.25
2022-11-13T17:29:53.549Z,29.60
2022-11-13T17:32:42.315Z,32.78
2022-11-13T17:35:29.408Z,32.38
2022-11-13T17:38:17.799Z,36.80
2022-11-13T17:41:10.309Z,35.58
2022-11-13T17:44:01.093Z,35.42
2022-11-13T17:46:49.260Z,35.30
2022-11-13T17:49:37.377Z,35.40
2022-11-13T17:52:24.370Z,34.70
2022-11-13T17:55:14.155Z,36.05
2022-11-13T17:58:01.761Z,34.75
2022-11-13T18:00:48.597Z,35.45
2022-11-13T18:03:35.457Z,33.10
2022-11-13T18:06:24.559Z,34.53
2022-11-13T18:09:11.889Z,33.22
2022-11-13T18:11:58.602Z,33.30
2022-11-13T18:14:52.260Z,33.78
2022-11-13T18:17:42.205Z,32.80
2022-11-13T18:20:29.083Z,32.75
2022-11-13T18:23:17.717Z,34.10
2022-11-13T18:26:09.561Z,33.40
2022-11-13T18:28:56.663Z,32.90
2022-11-13T18:31:44.507Z,32.97
2022-11-13T18:34:31.591Z,29.70
2022-11-13T18:37:18.358Z,31.35
2022-11-13T18:40:08.743Z,29.60
2022-11-13T18:42:55.765Z,31.42
2022-11-13T18:45:42.624Z,29.25
2022-11-13T18:48:32.027Z,30.60
2022-11-13T18:51:20.905Z,31.45
2022-11-13T18:54:11.598Z,30.92
2022-11-13T18:57:00.053Z,29.33
2022-11-13T18:59:46.863Z,31.23
2022-11-13T19:02:36.208Z,30.55
2022-11-13T19:05:23.129Z,29.38
2022-11-13T19:08:09.841Z,31.65
2022-11-13T19:10:56.455Z,31.88
2022-11-13T19:13:46.936Z,30.83
2022-11-13T19:16:37.347Z,29.77
2022-11-13T19:19:25.089Z,29.42
2022-11-13T19:22:14.426Z,29.25
2022-11-13T19:25:04.069Z,30.73
2022-11-13T19:27:50.949Z,33.75
2022-11-13T19:30:45.351Z,32.75
2022-11-13T19:33:35.417Z,32.00
2022-11-13T19:40:39.035Z,32.25
2022-11-13T19:47:58.667Z,31.90
2022-11-13T19:51:00.044Z,32.97
2022-11-13T19:53:50.563Z,31.60
2022-11-13T19:56:53.894Z,33.95
2022-11-13T19:59:41.436Z,31.80
2022-11-13T20:02:28.303Z,35.58
2022-11-13T20:05:16.973Z,32.33
2022-11-13T20:08:08.490Z,34.80
2022-11-13T20:10:55.421Z,34.42
2022-11-13T20:18:32.103Z,33.03
2022-11-13T20:21:31.575Z,31.05
2022-11-13T20:25:03.381Z,30.58
2022-11-13T20:28:01.276Z,30.90
2022-11-13T20:31:07.164Z,31.15
2022-11-13T20:34:01.092Z,32.28
2022-11-13T20:37:04.567Z,30.58
2022-11-13T20:44:08.022Z,30.90
2022-11-13T20:47:06.820Z,30.15
2022-11-13T20:49:54.579Z,30.50
2022-11-13T20:53:02.775Z,29.55
2022-11-13T20:55:50.295Z,27.90
2022-11-13T20:58:38.014Z,28.40
2022-11-13T21:01:27.097Z,31.05
2022-11-13T21:04:32.152Z,28.10
2022-11-13T21:07:20.270Z,28.27
2022-11-13T21:10:09.788Z,27.63
2022-11-13T21:12:57.214Z,27.92
2022-11-13T21:15:54.904Z,28.45
2022-11-13T21:18:43.630Z,27.23
2022-11-13T21:21:59.950Z,27.77
2022-11-13T21:24:46.904Z,28.02
2022-11-13T21:41:15.876Z,24.88
2022-11-13T21:44:04.869Z,25.08
2022-11-13T21:46:51.738Z,26.80
2022-11-13T21:49:38.592Z,28.25
2022-11-13T21:52:25.438Z,27.38
2022-11-13T21:55:12.375Z,27.48
2022-11-13T21:58:00.787Z,26.77
2022-11-13T22:00:47.478Z,28.02
2022-11-13T22:03:34.415Z,26.92
2022-11-13T22:06:23.240Z,28.15
2022-11-13T22:09:15.290Z,28.05
2022-11-13T22:12:02.233Z,29.88
2022-11-13T22:14:50.667Z,28.58
2022-11-13T22:17:37.618Z,28.67
2022-11-13T22:20:24.379Z,26.95
2022-11-13T22:23:11.601Z,27.17
2022-11-13T22:26:03.108Z,27.73
2022-11-13T22:28:50.100Z,26.88
2022-11-13T22:31:38.571Z,27.50
2022-11-13T22:34:25.578Z,27.65
2022-11-13T22:37:12.370Z,27.23
2022-11-13T22:39:59.220Z,27.98
2022-11-13T22:42:46.142Z,27.35
2022-11-13T22:45:34.655Z,28.70
2022-11-13T22:48:22.695Z,28.48
2022-11-13T22:51:12.105Z,28.10
2022-11-13T22:54:00.505Z,26.55
2022-11-13T22:56:47.146Z,26.48
2022-11-13T22:59:33.725Z,28.50
2022-11-13T23:02:20.626Z,27.33
2022-11-13T23:05:09.141Z,27.05
2022-11-13T23:07:56.136Z,25.02
2022-11-13T23:10:42.889Z,27.02
2022-11-13T23:13:29.569Z,24.00
2022-11-13T23:16:16.827Z,24.05
2022-11-13T23:19:04.089Z,24.02
2022-11-13T23:21:52.406Z,26.33
2022-11-13T23:24:39.459Z,22.70
2022-11-13T23:27:26.081Z,25.58
2022-11-13T23:30:13.563Z,23.00
2022-11-13T23:33:00.485Z,23.90
2022-11-13T23:35:47.605Z,22.13
2022-11-13T23:38:35.783Z,21.15
2022-11-13T23:41:22.765Z,20.90
2022-11-13T23:44:09.975Z,19.88
2022-11-13T23:46:56.962Z,19.27
2022-11-13T23:49:43.888Z,20.77
2022-11-13T23:52:30.740Z,20.73
2022-11-13T23:55:19.655Z,20.80
2022-11-13T23:58:08.021Z,20.52
